Meadowcreek, Virginia
Current Conditions -  °F | °C
As of 8:55 PM on Monday 20 Oct 2014 (Local Time) from KHLX Reporting Station
Broken Clouds Broken Clouds  
Wind Chill: 54°   Ceiling: 8000
Heat Index: 54°   Visibility: 10mi
Dew Point: 47°   Wind: 5mph
Humidity: 77%   Direction: 190°S
Pressure: 29.99"   Gusts: NA
Location:  36.6484°N, 80.9203°W
Report Text: KHLX 210055Z AUTO 19004KT 10SM BKN080 12/08 A2999 RMK AO2 T01220082
Loading
Personal Weather Stations






























Interactive Weather Map
Tropical Storm Tracking
New forecast layout! Learn more

10-Day Weather Forecast

Advertisements
Track Severe Weather on mobile